Drummond Island, MI

3:20 AM EDT on May 07, 2015 (GMT -0400)
Drummond Island | | Change Station
CLOSE
Current Station
Airport
Location: Drummond Island,
Elevation: 669 ft
Nearby Weather Stations

Elev 669 ft 46.01 °N, 83.74 °W | Updated 5 minutes ago

Clear
Clear
49 °F
Feels Like 49 °F
N
8
Wind Variable Wind from SSE

Today
High -- | Low -- °F
--% Chance of Precip.
Yesterday
High -- | Low -- °F
Precip. -- in
6:13 AM 8:50 PM
Waning Gibbous, 90% visible
Pressure 30.14 in
Visibility 10.0 miles
Clouds Clear
Dew Point 40 °F
Humidity 70%
Rainfall 0.00 in
Snow Depth Not available.
UV 0 out of 12
Pollen 10.60 out of 12
Air Quality Not available.
Flu Activity Regional
METAR KDRM 070715Z AUTO 15007KT 10SM CLR 10/04 A3014 RMK AO2 T00960043

More Conditions Fewer Conditions

Pressure 30.14 in
Visibility 10.0 miles
Clouds Clear
Dew Point 40 °F
Humidity 70%
Rainfall 0.00 in
Snow Depth Not available.
UV 0 out of 12
Pollen 10.60 out of 12
Air Quality Not available.
Flu Activity Regional
METAR KDRM 070715Z AUTO 15007KT 10SM CLR 10/04 A3014 RMK AO2 T00960043

More Conditions Fewer Conditions

Nowcast | as of 3:00 am EDT on May 7, 2015

At 4 am...mostly clear. Temperature 49. East winds 6 mph. At 6 am...mostly clear. Temperature 48. East winds 5 mph. At 8 am...mostly clear. Temperature 50. East winds 5 mph. At 10 am...partly cloudy. Temperature 58. Southeast winds 7 mph.

×

10-Day Weather Forecast

Almanac

Astronomy

May. 07, 2015 Rise Set
Actual Time
Civil Twilight
Nautical Twilight
Astronomical Twilight
Moon
Length of Visible Light
Length of Day
Tomorrow will be .
, % of the Moon is Illuminated

Today's Extremes

State Highs State Lows

Community

WunderPhotos

Upload Photos

1,819,126 photos uploaded!

WunderBlogs® & News

Nearby

Air Quality

  Air Quality AQ Index Pollutant
Not available.

Snow Depth

Station Depth Elevation

Earthquake Activity

City Distance Mag. Time & Date
Minimum magnitude displayed is 2.5.

Coastal Water Temperatures

Place Temperature

Stations

Nearby Weather Stations

Station Location Temp. Windchill Dew Point Humidity Wind Precip. Elev Updated Type